sensor_id;sensor_type;location;lat;lon;timestamp;pressure;altitude;pressure_sealevel;temperature;humidity
75051;BME280;63628;47.656;11.310;2023-04-12T00:00:15;94401.88;;;7.04;66.13
75051;BME280;63628;47.656;11.310;2023-04-12T00:02:43;94407.84;;;6.75;67.44
75051;BME280;63628;47.656;11.310;2023-04-12T00:05:10;94397.09;;;6.58;65.87
75051;BME280;63628;47.656;11.310;2023-04-12T00:07:37;94403.53;;;6.37;66.89
75051;BME280;63628;47.656;11.310;2023-04-12T00:10:05;94391.56;;;6.84;67.88
75051;BME280;63628;47.656;11.310;2023-04-12T00:12:34;94391.34;;;7.04;67.05
75051;BME280;63628;47.656;11.310;2023-04-12T00:15:01;94384.16;;;7.11;66.64
75051;BME280;63628;47.656;11.310;2023-04-12T00:17:27;94387.69;;;7.05;67.12
75051;BME280;63628;47.656;11.310;2023-04-12T00:19:54;94381.97;;;7.08;67.15
75051;BME280;63628;47.656;11.310;2023-04-12T00:22:21;94379.00;;;7.05;67.32
75051;BME280;63628;47.656;11.310;2023-04-12T00:24:47;94374.66;;;7.10;67.37
75051;BME280;63628;47.656;11.310;2023-04-12T00:27:14;94373.66;;;7.11;67.02
75051;BME280;63628;47.656;11.310;2023-04-12T00:29:42;94367.59;;;7.11;67.22
75051;BME280;63628;47.656;11.310;2023-04-12T00:32:09;94362.19;;;7.06;67.04
75051;BME280;63628;47.656;11.310;2023-04-12T00:34:35;94358.38;;;7.02;65.94
75051;BME280;63628;47.656;11.310;2023-04-12T00:37:02;94351.88;;;7.04;67.40
75051;BME280;63628;47.656;11.310;2023-04-12T00:39:29;94358.97;;;7.04;67.09
75051;BME280;63628;47.656;11.310;2023-04-12T00:41:55;94352.25;;;7.08;67.34
75051;BME280;63628;47.656;11.310;2023-04-12T00:44:22;94356.25;;;7.10;66.98
75051;BME280;63628;47.656;11.310;2023-04-12T00:46:50;94350.63;;;7.07;67.20
75051;BME280;63628;47.656;11.310;2023-04-12T00:49:17;94353.97;;;7.14;66.68
75051;BME280;63628;47.656;11.310;2023-04-12T00:51:44;94350.84;;;7.05;67.11
75051;BME280;63628;47.656;11.310;2023-04-12T00:54:12;94346.47;;;6.99;67.55
75051;BME280;63628;47.656;11.310;2023-04-12T00:56:39;94351.31;;;7.02;67.39
75051;BME280;63628;47.656;11.310;2023-04-12T00:59:06;94344.78;;;7.05;66.84
75051;BME280;63628;47.656;11.310;2023-04-12T01:01:33;94340.84;;;6.95;65.62
75051;BME280;63628;47.656;11.310;2023-04-12T01:04:02;94344.50;;;6.94;67.16
75051;BME280;63628;47.656;11.310;2023-04-12T01:06:41;94337.22;;;6.96;67.43
75051;BME280;63628;47.656;11.310;2023-04-12T01:09:17;94338.31;;;6.71;67.86
75051;BME280;63628;47.656;11.310;2023-04-12T01:11:52;94330.00;;;6.74;67.87
75051;BME280;63628;47.656;11.310;2023-04-12T01:14:27;94335.91;;;6.87;67.94
75051;BME280;63628;47.656;11.310;2023-04-12T01:16:56;94343.31;;;5.92;71.04
75051;BME280;63628;47.656;11.310;2023-04-12T01:19:36;94333.72;;;5.73;72.32
75051;BME280;63628;47.656;11.310;2023-04-12T01:22:15;94334.28;;;4.74;77.55
75051;BME280;63628;47.656;11.310;2023-04-12T01:24:50;94332.56;;;6.19;70.12
75051;BME280;63628;47.656;11.310;2023-04-12T01:27:28;94332.50;;;4.55;78.40
75051;BME280;63628;47.656;11.310;2023-04-12T01:30:02;94327.75;;;5.59;73.64
75051;BME280;63628;47.656;11.310;2023-04-12T01:32:33;94323.75;;;6.50;69.25
75051;BME280;63628;47.656;11.310;2023-04-12T01:35:02;94316.13;;;6.66;68.85
75051;BME280;63628;47.656;11.310;2023-04-12T01:37:29;94311.59;;;6.74;68.16
75051;BME280;63628;47.656;11.310;2023-04-12T01:39:56;94312.75;;;6.78;68.13
75051;BME280;63628;47.656;11.310;2023-04-12T01:42:23;94315.16;;;6.79;68.20
75051;BME280;63628;47.656;11.310;2023-04-12T01:44:51;94319.75;;;6.84;67.38
75051;BME280;63628;47.656;11.310;2023-04-12T01:47:18;94317.44;;;6.76;68.07
75051;BME280;63628;47.656;11.310;2023-04-12T01:49:48;94321.81;;;6.82;67.74
75051;BME280;63628;47.656;11.310;2023-04-12T01:52:21;94317.72;;;6.86;67.55
75051;BME280;63628;47.656;11.310;2023-04-12T01:54:53;94319.03;;;6.77;67.85
75051;BME280;63628;47.656;11.310;2023-04-12T01:57:22;94321.56;;;6.28;69.27
75051;BME280;63628;47.656;11.310;2023-04-12T01:59:52;94330.50;;;5.71;73.17
75051;BME280;63628;47.656;11.310;2023-04-12T02:02:21;94334.44;;;6.55;69.43
75051;BME280;63628;47.656;11.310;2023-04-12T02:04:49;94333.06;;;6.71;68.30
75051;BME280;63628;47.656;11.310;2023-04-12T02:07:17;94328.16;;;6.74;68.21
75051;BME280;63628;47.656;11.310;2023-04-12T02:09:46;94331.53;;;6.81;67.36
75051;BME280;63628;47.656;11.310;2023-04-12T02:12:13;94326.19;;;6.70;67.45
75051;BME280;63628;47.656;11.310;2023-04-12T02:14:39;94334.97;;;6.63;68.00
75051;BME280;63628;47.656;11.310;2023-04-12T02:17:07;94338.03;;;6.60;68.56
75051;BME280;63628;47.656;11.310;2023-04-12T02:19:34;94343.81;;;6.69;66.59
75051;BME280;63628;47.656;11.310;2023-04-12T02:22:01;94349.31;;;5.99;72.87
75051;BME280;63628;47.656;11.310;2023-04-12T02:24:30;94337.81;;;6.19;69.62
75051;BME280;63628;47.656;11.310;2023-04-12T02:26:57;94351.97;;;6.61;68.22
75051;BME280;63628;47.656;11.310;2023-04-12T02:29:24;94351.59;;;5.83;73.17
75051;BME280;63628;47.656;11.310;2023-04-12T02:31:51;94349.88;;;6.26;70.05
75051;BME280;63628;47.656;11.310;2023-04-12T02:34:19;94350.38;;;6.60;69.25
75051;BME280;63628;47.656;11.310;2023-04-12T02:36:46;94344.03;;;6.67;68.57
75051;BME280;63628;47.656;11.310;2023-04-12T02:39:13;94347.97;;;6.58;68.18
75051;BME280;63628;47.656;11.310;2023-04-12T02:41:44;94337.75;;;6.50;68.73
75051;BME280;63628;47.656;11.310;2023-04-12T02:44:11;94334.97;;;6.63;68.34
75051;BME280;63628;47.656;11.310;2023-04-12T02:46:38;94327.69;;;6.41;69.36
75051;BME280;63628;47.656;11.310;2023-04-12T02:49:04;94333.50;;;6.06;70.27
75051;BME280;63628;47.656;11.310;2023-04-12T02:51:32;94333.88;;;4.70;77.23
75051;BME280;63628;47.656;11.310;2023-04-12T02:53:59;94322.22;;;4.66;79.47
75051;BME280;63628;47.656;11.310;2023-04-12T02:56:26;94319.41;;;5.69;73.75
75051;BME280;63628;47.656;11.310;2023-04-12T02:58:55;94323.75;;;6.31;70.54
75051;BME280;63628;47.656;11.310;2023-04-12T03:01:22;94319.53;;;6.49;69.07
75051;BME280;63628;47.656;11.310;2023-04-12T03:03:49;94310.25;;;6.28;70.39
75051;BME280;63628;47.656;11.310;2023-04-12T03:06:15;94304.56;;;6.49;68.89
75051;BME280;63628;47.656;11.310;2023-04-12T03:08:43;94303.13;;;6.53;68.62
75051;BME280;63628;47.656;11.310;2023-04-12T03:11:10;94293.41;;;6.54;68.71
75051;BME280;63628;47.656;11.310;2023-04-12T03:13:36;94294.97;;;6.18;71.17
75051;BME280;63628;47.656;11.310;2023-04-12T03:16:19;94290.03;;;6.47;68.74
75051;BME280;63628;47.656;11.310;2023-04-12T03:18:47;94293.25;;;6.49;68.43
75051;BME280;63628;47.656;11.310;2023-04-12T03:21:14;94282.09;;;6.53;68.27
75051;BME280;63628;47.656;11.310;2023-04-12T03:23:41;94277.66;;;6.54;68.31
75051;BME280;63628;47.656;11.310;2023-04-12T03:26:09;94277.00;;;6.58;68.47
75051;BME280;63628;47.656;11.310;2023-04-12T03:28:36;94272.16;;;6.55;68.76
75051;BME280;63628;47.656;11.310;2023-04-12T03:31:02;94272.22;;;6.49;68.81
75051;BME280;63628;47.656;11.310;2023-04-12T03:33:30;94261.66;;;6.55;68.30
75051;BME280;63628;47.656;11.310;2023-04-12T03:35:56;94262.03;;;6.59;67.99
75051;BME280;63628;47.656;11.310;2023-04-12T03:38:23;94259.03;;;6.55;68.06
75051;BME280;63628;47.656;11.310;2023-04-12T03:40:49;94250.47;;;6.23;71.89
75051;BME280;63628;47.656;11.310;2023-04-12T03:43:17;94255.72;;;4.61;80.37
75051;BME280;63628;47.656;11.310;2023-04-12T03:45:44;94236.81;;;4.90;78.84
75051;BME280;63628;47.656;11.310;2023-04-12T03:48:11;94232.19;;;5.67;74.78
75051;BME280;63628;47.656;11.310;2023-04-12T03:50:37;94227.47;;;6.00;71.52
75051;BME280;63628;47.656;11.310;2023-04-12T03:53:10;94208.66;;;6.22;69.88
75051;BME280;63628;47.656;11.310;2023-04-12T03:55:37;94216.16;;;5.32;77.67
75051;BME280;63628;47.656;11.310;2023-04-12T03:58:03;94201.94;;;6.08;71.30
75051;BME280;63628;47.656;11.310;2023-04-12T04:00:31;94188.94;;;6.31;69.84
75051;BME280;63628;47.656;11.310;2023-04-12T04:02:59;94193.94;;;5.34;76.88
75051;BME280;63628;47.656;11.310;2023-04-12T04:05:29;94188.00;;;5.89;72.48
75051;BME280;63628;47.656;11.310;2023-04-12T04:07:56;94180.03;;;6.32;70.44
75051;BME280;63628;47.656;11.310;2023-04-12T04:10:27;94180.31;;;6.42;69.88
75051;BME280;63628;47.656;11.310;2023-04-12T04:12:54;94175.88;;;6.43;69.43
75051;BME280;63628;47.656;11.310;2023-04-12T04:15:20;94183.88;;;6.48;69.12
75051;BME280;63628;47.656;11.310;2023-04-12T04:17:48;94177.47;;;6.44;69.13
75051;BME280;63628;47.656;11.310;2023-04-12T04:20:15;94170.25;;;6.39;69.78
75051;BME280;63628;47.656;11.310;2023-04-12T04:22:43;94165.56;;;6.41;68.70
75051;BME280;63628;47.656;11.310;2023-04-12T04:25:10;94174.03;;;6.43;69.23
75051;BME280;63628;47.656;11.310;2023-04-12T04:27:39;94165.06;;;6.32;70.12
75051;BME280;63628;47.656;11.310;2023-04-12T04:30:07;94157.91;;;5.91;72.36
75051;BME280;63628;47.656;11.310;2023-04-12T04:32:35;94155.09;;;6.23;69.39
75051;BME280;63628;47.656;11.310;2023-04-12T04:35:04;94145.00;;;6.38;69.12
75051;BME280;63628;47.656;11.310;2023-04-12T04:37:31;94152.47;;;5.18;77.72
75051;BME280;63628;47.656;11.310;2023-04-12T04:40:00;94138.53;;;6.22;70.07
75051;BME280;63628;47.656;11.310;2023-04-12T04:42:33;94140.97;;;6.35;69.11
75051;BME280;63628;47.656;11.310;2023-04-12T04:45:00;94145.81;;;5.84;73.58
75051;BME280;63628;47.656;11.310;2023-04-12T04:47:38;94143.31;;;5.95;72.88
75051;BME280;63628;47.656;11.310;2023-04-12T04:50:06;94138.81;;;6.32;69.70
75051;BME280;63628;47.656;11.310;2023-04-12T04:52:33;94137.25;;;6.43;69.25
75051;BME280;63628;47.656;11.310;2023-04-12T04:55:00;94130.03;;;6.39;69.21
75051;BME280;63628;47.656;11.310;2023-04-12T04:57:28;94132.44;;;6.40;69.47
75051;BME280;63628;47.656;11.310;2023-04-12T04:59:54;94136.09;;;6.39;69.71
75051;BME280;63628;47.656;11.310;2023-04-12T05:02:21;94140.00;;;6.18;72.85
75051;BME280;63628;47.656;11.310;2023-04-12T05:04:48;94131.47;;;6.04;70.71
75051;BME280;63628;47.656;11.310;2023-04-12T05:07:16;94133.78;;;6.31;69.32
75051;BME280;63628;47.656;11.310;2023-04-12T05:09:42;94131.84;;;6.38;68.90
75051;BME280;63628;47.656;11.310;2023-04-12T05:12:09;94132.75;;;5.59;74.55
75051;BME280;63628;47.656;11.310;2023-04-12T05:14:35;94133.81;;;6.13;70.74
75051;BME280;63628;47.656;11.310;2023-04-12T05:17:13;94121.09;;;6.28;69.24
75051;BME280;63628;47.656;11.310;2023-04-12T05:19:40;94123.41;;;6.36;69.13
75051;BME280;63628;47.656;11.310;2023-04-12T05:22:06;94111.84;;;6.37;69.20
75051;BME280;63628;47.656;11.310;2023-04-12T05:24:34;94112.44;;;6.39;69.17
75051;BME280;63628;47.656;11.310;2023-04-12T05:27:02;94102.94;;;6.38;68.92
75051;BME280;63628;47.656;11.310;2023-04-12T05:29:29;94103.53;;;6.40;69.57
75051;BME280;63628;47.656;11.310;2023-04-12T05:31:57;94102.72;;;6.40;68.96
75051;BME280;63628;47.656;11.310;2023-04-12T05:34:23;94102.06;;;6.44;68.58
75051;BME280;63628;47.656;11.310;2023-04-12T05:36:50;94092.56;;;6.43;68.60
75051;BME280;63628;47.656;11.310;2023-04-12T05:39:16;94094.88;;;5.91;74.14
75051;BME280;63628;47.656;11.310;2023-04-12T05:41:47;94078.47;;;6.26;72.08
75051;BME280;63628;47.656;11.310;2023-04-12T05:44:14;94076.25;;;6.11;71.40
75051;BME280;63628;47.656;11.310;2023-04-12T05:46:40;94073.22;;;6.26;70.31
75051;BME280;63628;47.656;11.310;2023-04-12T05:49:08;94068.03;;;6.19;73.89
75051;BME280;63628;47.656;11.310;2023-04-12T05:51:34;94065.09;;;5.79;78.89
75051;BME280;63628;47.656;11.310;2023-04-12T05:54:07;94060.84;;;5.78;78.42
75051;BME280;63628;47.656;11.310;2023-04-12T05:56:34;94057.44;;;5.59;80.97
75051;BME280;63628;47.656;11.310;2023-04-12T05:59:02;94054.31;;;5.32;82.67
75051;BME280;63628;47.656;11.310;2023-04-12T06:01:30;94046.00;;;5.35;82.99
75051;BME280;63628;47.656;11.310;2023-04-12T06:04:00;94045.25;;;5.83;75.26
75051;BME280;63628;47.656;11.310;2023-04-12T06:06:31;94042.63;;;5.83;79.23
75051;BME280;63628;47.656;11.310;2023-04-12T06:08:58;94035.63;;;6.25;71.30
75051;BME280;63628;47.656;11.310;2023-04-12T06:11:26;94032.72;;;5.67;79.90
75051;BME280;63628;47.656;11.310;2023-04-12T06:13:52;94035.56;;;6.02;73.36
75051;BME280;63628;47.656;11.310;2023-04-12T06:16:20;94038.47;;;6.24;70.93
75051;BME280;63628;47.656;11.310;2023-04-12T06:18:47;94035.75;;;6.30;70.14
75051;BME280;63628;47.656;11.310;2023-04-12T06:21:13;94039.31;;;6.36;74.42
75051;BME280;63628;47.656;11.310;2023-04-12T06:23:40;94043.41;;;6.32;70.05
75051;BME280;63628;47.656;11.310;2023-04-12T06:26:07;94037.13;;;6.33;70.18
75051;BME280;63628;47.656;11.310;2023-04-12T06:28:34;94032.81;;;6.39;70.75
75051;BME280;63628;47.656;11.310;2023-04-12T06:31:01;94035.88;;;6.35;70.18
75051;BME280;63628;47.656;11.310;2023-04-12T06:33:29;94044.44;;;6.31;70.37
75051;BME280;63628;47.656;11.310;2023-04-12T06:35:55;94039.75;;;6.33;69.62
75051;BME280;63628;47.656;11.310;2023-04-12T06:38:22;94039.97;;;6.31;69.85
75051;BME280;63628;47.656;11.310;2023-04-12T06:40:48;94035.88;;;6.35;69.47
75051;BME280;63628;47.656;11.310;2023-04-12T06:43:16;94030.63;;;6.35;69.52
75051;BME280;63628;47.656;11.310;2023-04-12T06:45:44;94026.75;;;6.38;69.30
75051;BME280;63628;47.656;11.310;2023-04-12T06:48:11;94020.78;;;6.31;75.59
75051;BME280;63628;47.656;11.310;2023-04-12T06:50:39;94025.59;;;6.34;70.26
75051;BME280;63628;47.656;11.310;2023-04-12T06:53:06;94006.97;;;6.35;69.73
75051;BME280;63628;47.656;11.310;2023-04-12T06:55:33;94007.31;;;6.39;69.20
75051;BME280;63628;47.656;11.310;2023-04-12T06:57:59;94007.91;;;6.41;75.05
75051;BME280;63628;47.656;11.310;2023-04-12T07:00:26;94002.75;;;6.34;69.34
75051;BME280;63628;47.656;11.310;2023-04-12T07:02:53;93999.00;;;6.42;69.42
75051;BME280;63628;47.656;11.310;2023-04-12T07:05:20;94006.88;;;6.42;70.12
75051;BME280;63628;47.656;11.310;2023-04-12T07:07:48;93998.66;;;6.39;69.03
75051;BME280;63628;47.656;11.310;2023-04-12T07:10:14;93999.78;;;6.43;69.33
75051;BME280;63628;47.656;11.310;2023-04-12T07:12:41;93991.56;;;6.39;69.45
75051;BME280;63628;47.656;11.310;2023-04-12T07:15:08;93987.00;;;6.46;69.78
75051;BME280;63628;47.656;11.310;2023-04-12T07:17:35;93995.13;;;6.45;69.98
75051;BME280;63628;47.656;11.310;2023-04-12T07:20:02;93987.91;;;6.40;69.74
75051;BME280;63628;47.656;11.310;2023-04-12T07:22:29;93988.34;;;6.37;69.29
75051;BME280;63628;47.656;11.310;2023-04-12T07:24:57;93984.81;;;6.43;69.26
75051;BME280;63628;47.656;11.310;2023-04-12T07:27:23;93983.69;;;6.39;69.06
75051;BME280;63628;47.656;11.310;2023-04-12T07:29:50;93979.25;;;6.51;73.00
75051;BME280;63628;47.656;11.310;2023-04-12T07:32:17;93985.75;;;6.49;76.51
75051;BME280;63628;47.656;11.310;2023-04-12T07:34:43;93975.09;;;6.32;71.38
75051;BME280;63628;47.656;11.310;2023-04-12T07:37:10;93969.97;;;6.37;69.84
75051;BME280;63628;47.656;11.310;2023-04-12T07:39:37;93972.13;;;6.40;69.88
75051;BME280;63628;47.656;11.310;2023-04-12T07:42:07;93969.28;;;6.42;69.84
75051;BME280;63628;47.656;11.310;2023-04-12T07:44:33;93956.16;;;6.42;70.02
75051;BME280;63628;47.656;11.310;2023-04-12T07:47:04;93957.97;;;6.41;70.11
75051;BME280;63628;47.656;11.310;2023-04-12T07:49:30;93960.59;;;6.41;70.33
75051;BME280;63628;47.656;11.310;2023-04-12T07:51:57;93962.78;;;6.44;69.12
75051;BME280;63628;47.656;11.310;2023-04-12T07:54:26;93950.66;;;6.43;69.95
75051;BME280;63628;47.656;11.310;2023-04-12T07:56:57;93949.28;;;6.41;69.57
75051;BME280;63628;47.656;11.310;2023-04-12T07:59:25;93954.59;;;6.52;72.27
75051;BME280;63628;47.656;11.310;2023-04-12T08:01:52;93954.44;;;6.47;69.73
75051;BME280;63628;47.656;11.310;2023-04-12T08:04:19;93953.28;;;6.43;70.01
75051;BME280;63628;47.656;11.310;2023-04-12T08:06:46;93955.13;;;6.43;69.82
75051;BME280;63628;47.656;11.310;2023-04-12T08:09:12;93947.22;;;6.43;69.85
75051;BME280;63628;47.656;11.310;2023-04-12T08:11:39;93954.88;;;6.44;69.98
75051;BME280;63628;47.656;11.310;2023-04-12T08:14:05;93956.50;;;6.45;69.59
75051;BME280;63628;47.656;11.310;2023-04-12T08:16:33;93961.97;;;6.44;70.23
75051;BME280;63628;47.656;11.310;2023-04-12T08:19:00;93959.50;;;6.60;74.71
75051;BME280;63628;47.656;11.310;2023-04-12T08:21:27;93953.09;;;6.56;79.35
75051;BME280;63628;47.656;11.310;2023-04-12T08:23:55;93951.97;;;6.52;73.33
75051;BME280;63628;47.656;11.310;2023-04-12T08:26:22;93945.09;;;6.63;77.74
75051;BME280;63628;47.656;11.310;2023-04-12T08:28:49;93956.25;;;6.47;71.47
75051;BME280;63628;47.656;11.310;2023-04-12T08:31:16;93946.13;;;6.62;72.60
75051;BME280;63628;47.656;11.310;2023-04-12T08:33:44;93940.06;;;6.61;80.69
75051;BME280;63628;47.656;11.310;2023-04-12T08:36:11;93924.41;;;6.55;81.62
75051;BME280;63628;47.656;11.310;2023-04-12T08:38:38;93898.91;;;6.44;73.23
75051;BME280;63628;47.656;11.310;2023-04-12T08:41:11;93907.69;;;6.49;71.57
75051;BME280;63628;47.656;11.310;2023-04-12T08:43:42;93883.59;;;6.64;72.98
75051;BME280;63628;47.656;11.310;2023-04-12T08:46:09;93871.25;;;6.64;76.29
75051;BME280;63628;47.656;11.310;2023-04-12T08:48:39;93871.84;;;6.55;71.45
75051;BME280;63628;47.656;11.310;2023-04-12T08:51:08;93869.00;;;6.56;71.30
75051;BME280;63628;47.656;11.310;2023-04-12T08:53:37;93844.19;;;6.64;73.20
75051;BME280;63628;47.656;11.310;2023-04-12T08:56:05;93803.28;;;6.56;70.79
75051;BME280;63628;47.656;11.310;2023-04-12T08:58:32;93801.78;;;7.00;78.26
75051;BME280;63628;47.656;11.310;2023-04-12T09:00:59;93816.75;;;6.60;70.21
75051;BME280;63628;47.656;11.310;2023-04-12T09:03:26;93799.75;;;6.91;77.91
75051;BME280;63628;47.656;11.310;2023-04-12T09:06:01;93783.25;;;6.67;71.19
75051;BME280;63628;47.656;11.310;2023-04-12T09:08:29;93782.41;;;7.18;79.62
75051;BME280;63628;47.656;11.310;2023-04-12T09:10:56;93777.91;;;6.62;70.93
75051;BME280;63628;47.656;11.310;2023-04-12T09:13:30;93765.22;;;6.59;70.61
75051;BME280;63628;47.656;11.310;2023-04-12T09:15:57;93762.13;;;6.62;70.91
75051;BME280;63628;47.656;11.310;2023-04-12T09:18:24;93752.41;;;6.62;71.00
75051;BME280;63628;47.656;11.310;2023-04-12T09:21:05;93751.06;;;6.60;70.90
75051;BME280;63628;47.656;11.310;2023-04-12T09:23:33;93743.81;;;7.24;78.93
75051;BME280;63628;47.656;11.310;2023-04-12T09:26:03;93741.81;;;7.98;79.39
75051;BME280;63628;47.656;11.310;2023-04-12T09:28:30;93739.91;;;7.60;73.71
75051;BME280;63628;47.656;11.310;2023-04-12T09:30:57;93735.19;;;6.83;70.43
75051;BME280;63628;47.656;11.310;2023-04-12T09:33:32;93733.72;;;6.76;71.04
75051;BME280;63628;47.656;11.310;2023-04-12T09:35:59;93732.38;;;6.73;70.82
75051;BME280;63628;47.656;11.310;2023-04-12T09:38:27;93735.97;;;9.86;76.99
75051;BME280;63628;47.656;11.310;2023-04-12T09:40:55;93730.28;;;11.19;71.37
75051;BME280;63628;47.656;11.310;2023-04-12T09:43:35;93720.22;;;11.41;72.69
75051;BME280;63628;47.656;11.310;2023-04-12T09:46:08;93731.25;;;10.35;72.93
75051;BME280;63628;47.656;11.310;2023-04-12T09:48:36;93737.69;;;11.27;75.69
75051;BME280;63628;47.656;11.310;2023-04-12T09:51:03;93734.09;;;8.96;70.60
75051;BME280;63628;47.656;11.310;2023-04-12T09:53:32;93727.97;;;9.44;78.05
75051;BME280;63628;47.656;11.310;2023-04-12T09:56:00;93728.47;;;8.87;80.87
75051;BME280;63628;47.656;11.310;2023-04-12T09:58:30;93720.31;;;8.06;78.82
75051;BME280;63628;47.656;11.310;2023-04-12T10:01:00;93727.94;;;7.86;72.25
75051;BME280;63628;47.656;11.310;2023-04-12T10:03:27;93722.91;;;8.23;77.59
75051;BME280;63628;47.656;11.310;2023-04-12T10:05:54;93729.72;;;7.47;71.02
75051;BME280;63628;47.656;11.310;2023-04-12T10:08:22;93720.50;;;8.00;70.75
75051;BME280;63628;47.656;11.310;2023-04-12T10:10:48;93714.22;;;7.84;73.96
75051;BME280;63628;47.656;11.310;2023-04-12T10:13:17;93710.03;;;8.92;71.08
75051;BME280;63628;47.656;11.310;2023-04-12T10:15:44;93706.88;;;7.69;70.95
75051;BME280;63628;47.656;11.310;2023-04-12T10:18:13;93699.34;;;8.77;83.15
75051;BME280;63628;47.656;11.310;2023-04-12T10:20:41;93688.59;;;10.79;75.92
75051;BME280;63628;47.656;11.310;2023-04-12T10:23:08;93688.44;;;11.36;76.27
75051;BME280;63628;47.656;11.310;2023-04-12T10:25:37;93683.66;;;11.08;81.67
75051;BME280;63628;47.656;11.310;2023-04-12T10:28:14;93679.88;;;9.42;66.48
75051;BME280;63628;47.656;11.310;2023-04-12T10:30:44;93686.38;;;7.88;70.87
75051;BME280;63628;47.656;11.310;2023-04-12T10:33:15;93683.09;;;8.41;72.53
75051;BME280;63628;47.656;11.310;2023-04-12T10:35:53;93673.78;;;12.25;72.06
75051;BME280;63628;47.656;11.310;2023-04-12T10:38:21;93686.66;;;9.65;67.97
75051;BME280;63628;47.656;11.310;2023-04-12T10:41:15;93679.69;;;11.61;69.63
75051;BME280;63628;47.656;11.310;2023-04-12T10:43:43;93674.03;;;12.39;72.19
75051;BME280;63628;47.656;11.310;2023-04-12T10:46:50;93674.09;;;12.83;70.86
75051;BME280;63628;47.656;11.310;2023-04-12T10:49:17;93672.25;;;12.04;68.64
75051;BME280;63628;47.656;11.310;2023-04-12T10:52:11;93661.13;;;12.02;70.64
75051;BME280;63628;47.656;11.310;2023-04-12T10:54:39;93660.13;;;12.67;69.65
75051;BME280;63628;47.656;11.310;2023-04-12T10:57:06;93651.16;;;12.53;68.92
75051;BME280;63628;47.656;11.310;2023-04-12T10:59:50;93649.94;;;12.20;70.39
75051;BME280;63628;47.656;11.310;2023-04-12T11:02:19;93647.75;;;12.43;71.46
75051;BME280;63628;47.656;11.310;2023-04-12T11:05:05;93644.94;;;12.73;69.44
75051;BME280;63628;47.656;11.310;2023-04-12T11:07:38;93644.34;;;10.02;66.63
75051;BME280;63628;47.656;11.310;2023-04-12T11:10:11;93642.53;;;9.23;73.80
75051;BME280;63628;47.656;11.310;2023-04-12T11:12:40;93636.75;;;12.00;72.86
75051;BME280;63628;47.656;11.310;2023-04-12T11:15:10;93641.28;;;11.13;70.41
75051;BME280;63628;47.656;11.310;2023-04-12T11:17:39;93645.13;;;10.50;69.93
75051;BME280;63628;47.656;11.310;2023-04-12T11:20:10;93643.41;;;11.11;71.42
75051;BME280;63628;47.656;11.310;2023-04-12T11:22:38;93645.78;;;11.33;72.79
75051;BME280;63628;47.656;11.310;2023-04-12T11:25:08;93646.31;;;11.30;71.97
75051;BME280;63628;47.656;11.310;2023-04-12T11:27:34;93639.41;;;11.64;71.39
75051;BME280;63628;47.656;11.310;2023-04-12T11:30:04;93643.78;;;12.35;69.68
75051;BME280;63628;47.656;11.310;2023-04-12T11:32:31;93638.09;;;11.47;71.44
75051;BME280;63628;47.656;11.310;2023-04-12T11:35:00;93648.97;;;11.35;70.87
75051;BME280;63628;47.656;11.310;2023-04-12T11:37:29;93650.56;;;11.41;75.01
75051;BME280;63628;47.656;11.310;2023-04-12T11:39:56;93632.25;;;11.70;74.07
75051;BME280;63628;47.656;11.310;2023-04-12T11:42:25;93639.69;;;11.42;71.50
75051;BME280;63628;47.656;11.310;2023-04-12T11:44:52;93642.84;;;11.70;71.98
75051;BME280;63628;47.656;11.310;2023-04-12T11:47:25;93641.88;;;13.05;68.46
75051;BME280;63628;47.656;11.310;2023-04-12T11:49:54;93641.34;;;12.98;68.62
75051;BME280;63628;47.656;11.310;2023-04-12T11:52:28;93642.81;;;12.75;69.30
75051;BME280;63628;47.656;11.310;2023-04-12T11:54:55;93655.84;;;11.61;67.37
75051;BME280;63628;47.656;11.310;2023-04-12T11:57:24;93637.75;;;12.19;71.99
75051;BME280;63628;47.656;11.310;2023-04-12T11:59:51;93635.72;;;11.91;71.01
75051;BME280;63628;47.656;11.310;2023-04-12T12:02:18;93625.56;;;12.13;70.80
75051;BME280;63628;47.656;11.310;2023-04-12T12:04:50;93627.25;;;11.38;75.28
75051;BME280;63628;47.656;11.310;2023-04-12T12:07:18;93638.53;;;10.62;68.84
75051;BME280;63628;47.656;11.310;2023-04-12T12:09:48;93633.00;;;9.59;69.22
75051;BME280;63628;47.656;11.310;2023-04-12T12:12:16;93626.97;;;11.60;78.42
75051;BME280;63628;47.656;11.310;2023-04-12T12:14:44;93628.66;;;14.21;64.92
75051;BME280;63628;47.656;11.310;2023-04-12T12:17:14;93633.53;;;13.22;65.21
75051;BME280;63628;47.656;11.310;2023-04-12T12:19:43;93631.72;;;13.51;64.08
75051;BME280;63628;47.656;11.310;2023-04-12T12:22:13;93635.88;;;13.62;64.01
75051;BME280;63628;47.656;11.310;2023-04-12T12:24:45;93628.88;;;14.01;62.81
75051;BME280;63628;47.656;11.310;2023-04-12T12:27:17;93639.25;;;13.73;65.79
75051;BME280;63628;47.656;11.310;2023-04-12T12:29:48;93637.91;;;14.00;63.25
75051;BME280;63628;47.656;11.310;2023-04-12T12:32:16;93632.56;;;12.58;63.45
75051;BME280;63628;47.656;11.310;2023-04-12T12:34:49;93628.06;;;13.76;66.73
75051;BME280;63628;47.656;11.310;2023-04-12T12:37:19;93628.34;;;14.22;61.65
75051;BME280;63628;47.656;11.310;2023-04-12T12:39:59;93637.75;;;13.28;64.70
75051;BME280;63628;47.656;11.310;2023-04-12T12:42:27;93632.59;;;14.23;64.92
75051;BME280;63628;47.656;11.310;2023-04-12T12:44:54;93629.09;;;14.04;61.31
75051;BME280;63628;47.656;11.310;2023-04-12T12:47:21;93626.06;;;14.40;62.39
75051;BME280;63628;47.656;11.310;2023-04-12T12:49:47;93631.47;;;13.48;60.76
75051;BME280;63628;47.656;11.310;2023-04-12T12:52:14;93628.72;;;12.80;67.89
75051;BME280;63628;47.656;11.310;2023-04-12T12:54:43;93627.88;;;12.30;70.16
75051;BME280;63628;47.656;11.310;2023-04-12T12:57:10;93619.69;;;12.81;68.32
75051;BME280;63628;47.656;11.310;2023-04-12T12:59:38;93626.59;;;12.17;67.22
75051;BME280;63628;47.656;11.310;2023-04-12T13:02:04;93625.47;;;10.35;69.04
75051;BME280;63628;47.656;11.310;2023-04-12T13:04:32;93621.25;;;10.34;74.03